createdAt,value
2019-03-31T00:01:12.127Z,6.91
2019-03-31T00:06:08.949Z,6.85
2019-03-31T00:11:05.635Z,6.73
2019-03-31T00:16:02.661Z,6.79
2019-03-31T00:20:59.285Z,6.81
2019-03-31T00:25:55.919Z,6.97
2019-03-31T00:30:53.350Z,6.73
2019-03-31T00:35:49.947Z,6.27
2019-03-31T00:40:46.589Z,6.50
2019-03-31T00:45:43.249Z,6.20
2019-03-31T00:50:40.014Z,6.00
2019-03-31T00:55:36.601Z,5.75
2019-03-31T01:00:51.815Z,5.98
2019-03-31T01:05:48.865Z,6.18
2019-03-31T01:10:46.921Z,5.79
2019-03-31T01:15:43.599Z,5.88
2019-03-31T01:20:40.313Z,5.87
2019-03-31T01:25:36.880Z,6.25
2019-03-31T01:30:33.519Z,5.95
2019-03-31T01:35:30.480Z,5.75
2019-03-31T01:40:27.159Z,5.46
2019-03-31T01:45:24.114Z,5.55
2019-03-31T01:50:22.525Z,5.62
2019-03-31T01:55:19.296Z,5.68
2019-03-31T02:00:30.331Z,6.03
2019-03-31T02:05:26.986Z,5.17
2019-03-31T02:10:23.779Z,5.22
2019-03-31T02:15:24.329Z,5.10
2019-03-31T02:20:21.095Z,5.05
2019-03-31T02:25:17.704Z,5.07
2019-03-31T02:30:14.873Z,5.58
2019-03-31T02:35:11.857Z,5.07
2019-03-31T02:40:09.816Z,5.51
2019-03-31T02:45:06.779Z,4.97
2019-03-31T02:50:03.445Z,4.83
2019-03-31T02:55:00.564Z,5.24
2019-03-31T02:59:58.817Z,5.09
2019-03-31T03:04:58.122Z,5.02
2019-03-31T03:09:57.121Z,5.05
2019-03-31T03:14:56.482Z,4.65
2019-03-31T03:19:53.205Z,4.85
2019-03-31T03:24:49.759Z,5.06
2019-03-31T03:29:46.452Z,4.42
2019-03-31T03:34:44.073Z,4.54
2019-03-31T03:39:40.701Z,4.55
2019-03-31T03:44:37.300Z,4.69
2019-03-31T03:49:33.857Z,4.52
2019-03-31T03:54:30.496Z,4.70
2019-03-31T03:59:27.162Z,4.35
2019-03-31T04:04:23.740Z,4.73
2019-03-31T04:09:20.337Z,4.55
2019-03-31T04:14:17.129Z,4.06
2019-03-31T04:19:13.731Z,3.93
2019-03-31T04:24:10.565Z,4.15
2019-03-31T04:29:07.224Z,4.50
2019-03-31T04:34:03.881Z,4.29
2019-03-31T04:39:00.912Z,4.31
2019-03-31T04:43:57.635Z,3.92
2019-03-31T04:48:54.271Z,3.74
2019-03-31T04:53:51.893Z,3.69
2019-03-31T04:58:48.500Z,3.82
2019-03-31T05:03:45.155Z,3.67
2019-03-31T05:08:41.776Z,3.67
2019-03-31T05:13:38.373Z,3.70
2019-03-31T05:18:35.109Z,3.81
2019-03-31T05:23:31.757Z,3.84
2019-03-31T05:28:28.407Z,4.30
2019-03-31T05:33:24.982Z,4.49
2019-03-31T05:38:21.621Z,4.10
2019-03-31T05:43:18.215Z,4.19
2019-03-31T05:48:14.928Z,3.84
2019-03-31T05:53:11.503Z,3.87
2019-03-31T05:58:11.286Z,3.84
2019-03-31T06:03:07.946Z,3.89
2019-03-31T06:08:04.662Z,4.23
2019-03-31T06:13:01.264Z,4.51
2019-03-31T06:17:57.948Z,4.70
2019-03-31T06:22:54.562Z,4.78
2019-03-31T06:27:51.195Z,5.03
2019-03-31T06:32:47.795Z,5.36
2019-03-31T06:37:46.453Z,5.67
2019-03-31T06:42:43.071Z,5.91
2019-03-31T06:47:39.659Z,6.15
2019-03-31T06:52:36.319Z,6.22
2019-03-31T06:57:32.972Z,6.43
2019-03-31T07:02:29.648Z,6.63
2019-03-31T07:07:26.259Z,6.68
2019-03-31T07:12:22.780Z,6.80
2019-03-31T07:17:19.436Z,6.91
2019-03-31T07:22:16.081Z,7.22
2019-03-31T07:27:12.651Z,7.56
2019-03-31T07:32:09.583Z,7.86
2019-03-31T07:37:06.340Z,8.22
2019-03-31T07:42:03.424Z,8.46
2019-03-31T07:47:01.194Z,8.79
2019-03-31T07:51:57.947Z,9.00
2019-03-31T07:56:54.534Z,9.37
2019-03-31T08:01:51.131Z,10.10
2019-03-31T08:06:47.718Z,10.53
2019-03-31T08:11:45.348Z,10.96
2019-03-31T08:16:42.001Z,11.04
2019-03-31T08:21:38.563Z,11.34
2019-03-31T08:26:35.206Z,11.76
2019-03-31T08:31:31.893Z,11.84
2019-03-31T08:36:28.771Z,11.60
2019-03-31T08:41:25.480Z,11.86
2019-03-31T08:46:22.269Z,11.65
2019-03-31T08:51:18.897Z,11.76
2019-03-31T08:56:15.550Z,11.99
2019-03-31T09:01:14.502Z,12.16
2019-03-31T09:06:12.784Z,12.44
2019-03-31T09:11:09.368Z,12.75
2019-03-31T09:16:06.088Z,12.83
2019-03-31T09:21:02.700Z,13.07
2019-03-31T09:25:59.284Z,13.21
2019-03-31T09:30:55.992Z,13.63
2019-03-31T09:35:54.826Z,13.89
2019-03-31T09:40:51.540Z,13.80
2019-03-31T09:45:48.146Z,13.72
2019-03-31T09:50:44.999Z,13.76
2019-03-31T09:55:43.775Z,13.88
2019-03-31T10:00:49.491Z,14.00
2019-03-31T10:05:48.163Z,14.03
2019-03-31T10:10:45.209Z,14.32
2019-03-31T10:15:41.808Z,14.37
2019-03-31T10:20:38.495Z,14.42
2019-03-31T10:25:35.229Z,14.65
2019-03-31T10:30:36.810Z,14.66
2019-03-31T10:35:33.362Z,14.77
2019-03-31T10:40:32.267Z,14.76
2019-03-31T10:45:28.921Z,14.75
2019-03-31T10:50:25.793Z,14.80
2019-03-31T10:55:22.438Z,14.97
2019-03-31T11:00:32.850Z,15.01
2019-03-31T11:05:31.133Z,15.03
2019-03-31T11:10:27.792Z,15.28
2019-03-31T11:15:24.373Z,15.45
2019-03-31T11:20:21.213Z,15.40
2019-03-31T11:25:22.062Z,15.51
2019-03-31T11:30:16.661Z,15.71
2019-03-31T11:35:13.705Z,15.83
2019-03-31T11:40:10.865Z,15.94
2019-03-31T11:45:08.331Z,16.16
2019-03-31T11:50:05.751Z,16.13
2019-03-31T11:55:02.312Z,16.34
2019-03-31T11:59:58.955Z,16.28
2019-03-31T12:04:55.633Z,16.33
2019-03-31T12:09:52.370Z,16.66
2019-03-31T12:14:59.841Z,16.72
2019-03-31T12:19:48.952Z,17.00
2019-03-31T12:24:45.720Z,17.04
2019-03-31T12:29:42.475Z,17.06
2019-03-31T12:34:39.232Z,17.20
2019-03-31T12:39:35.915Z,17.08
2019-03-31T12:44:33.609Z,17.06
2019-03-31T12:49:30.314Z,17.07
2019-03-31T12:54:27.050Z,17.23
2019-03-31T12:59:27.074Z,17.60
2019-03-31T13:04:22.259Z,17.68
2019-03-31T13:09:18.940Z,17.59
2019-03-31T13:14:16.118Z,17.59
2019-03-31T13:19:12.778Z,17.38
2019-03-31T13:24:11.127Z,17.11
2019-03-31T13:29:08.780Z,17.52
2019-03-31T13:34:08.714Z,17.70
2019-03-31T13:39:08.786Z,17.56
2019-03-31T13:44:05.629Z,17.39
2019-03-31T13:49:05.344Z,17.27
2019-03-31T13:54:05.694Z,17.82
2019-03-31T13:59:09.090Z,18.06
2019-03-31T14:04:27.181Z,18.35
2019-03-31T14:09:45.833Z,18.13
2019-03-31T14:15:28.305Z,18.09
2019-03-31T14:20:18.637Z,18.21
2019-03-31T14:25:25.308Z,18.20
2019-03-31T14:30:41.898Z,17.96
2019-03-31T14:35:38.692Z,18.02
2019-03-31T14:40:41.069Z,18.43
2019-03-31T14:45:41.668Z,18.35
2019-03-31T14:50:40.213Z,18.54
2019-03-31T14:55:36.892Z,18.39
2019-03-31T15:00:33.576Z,18.33
2019-03-31T15:05:30.347Z,18.36
2019-03-31T15:10:27.076Z,18.44
2019-03-31T15:15:23.741Z,18.43
2019-03-31T15:20:22.845Z,18.66
2019-03-31T15:25:20.587Z,18.62
2019-03-31T15:30:18.006Z,18.38
2019-03-31T15:35:14.943Z,18.08
2019-03-31T15:40:13.808Z,17.87
2019-03-31T15:45:10.985Z,17.78
2019-03-31T15:50:09.038Z,17.68
2019-03-31T15:55:06.182Z,17.71
2019-03-31T16:00:05.748Z,17.83
2019-03-31T16:05:03.410Z,17.79
2019-03-31T16:09:59.233Z,18.06
2019-03-31T16:28:30.568Z,18.22
2019-03-31T16:33:26.393Z,17.91
2019-03-31T16:38:25.510Z,17.80
2019-03-31T16:43:19.817Z,17.67
2019-03-31T16:48:15.842Z,17.77
2019-03-31T16:53:11.673Z,17.84
2019-03-31T16:58:09.432Z,17.74
2019-03-31T17:03:05.101Z,17.61
2019-03-31T17:08:01.040Z,17.59
2019-03-31T17:12:58.309Z,17.49
2019-03-31T17:17:54.206Z,17.26
2019-03-31T17:22:50.156Z,17.12
2019-03-31T17:27:46.978Z,17.11
2019-03-31T17:32:42.885Z,16.92
2019-03-31T17:37:38.722Z,16.81
2019-03-31T17:42:34.731Z,16.57
2019-03-31T17:47:30.539Z,16.43
2019-03-31T17:52:26.522Z,16.30
2019-03-31T17:57:22.448Z,16.21
2019-03-31T18:02:18.233Z,15.96
2019-03-31T18:07:14.007Z,15.76
2019-03-31T18:12:09.818Z,15.80
2019-03-31T18:17:05.684Z,15.70
2019-03-31T18:22:15.580Z,15.49
2019-03-31T18:26:59.276Z,15.29
2019-03-31T18:31:55.297Z,15.29
2019-03-31T18:36:51.174Z,15.20
2019-03-31T18:41:46.927Z,15.02
2019-03-31T18:46:42.957Z,14.99
2019-03-31T18:51:38.794Z,14.91
2019-03-31T18:56:45.519Z,14.73
2019-03-31T19:01:52.148Z,14.51
2019-03-31T19:06:54.736Z,14.38
2019-03-31T19:12:12.323Z,14.18
2019-03-31T19:17:19.865Z,13.97
2019-03-31T19:22:33.154Z,13.87
2019-03-31T19:27:43.199Z,13.67
2019-03-31T19:32:57.916Z,13.63
2019-03-31T19:38:14.185Z,13.44
2019-03-31T19:43:35.291Z,13.31
2019-03-31T19:48:38.386Z,13.37
2019-03-31T19:53:54.826Z,13.49
2019-03-31T19:59:08.389Z,13.50
2019-03-31T20:04:22.996Z,13.62
2019-03-31T20:09:43.797Z,13.46
2019-03-31T20:15:04.402Z,13.36
2019-03-31T20:20:13.068Z,13.61
2019-03-31T20:25:16.353Z,13.37
2019-03-31T20:30:32.789Z,13.31
2019-03-31T20:35:40.489Z,13.25
2019-03-31T20:40:40.982Z,13.24
2019-03-31T20:45:36.895Z,13.41
2019-03-31T20:50:32.741Z,13.33
2019-03-31T20:55:28.513Z,13.31
2019-03-31T21:00:28.675Z,13.14
2019-03-31T21:05:29.738Z,13.23
2019-03-31T21:10:25.617Z,13.09
2019-03-31T21:15:21.886Z,13.05
2019-03-31T21:20:17.978Z,12.91
2019-03-31T21:25:14.231Z,12.69
2019-03-31T21:30:10.413Z,12.81
2019-03-31T21:35:07.051Z,12.70
2019-03-31T21:40:03.456Z,12.58
2019-03-31T21:45:07.435Z,12.44
2019-03-31T21:50:03.475Z,12.47
2019-03-31T21:55:01.044Z,12.51
2019-03-31T22:00:05.774Z,12.36
2019-03-31T22:05:03.239Z,12.47
2019-03-31T22:09:59.260Z,12.12
2019-03-31T22:14:57.796Z,11.72
2019-03-31T22:19:57.057Z,11.64
2019-03-31T22:24:53.012Z,11.24
2019-03-31T22:29:49.435Z,11.03
2019-03-31T22:34:45.359Z,10.99
2019-03-31T22:39:41.313Z,11.05
2019-03-31T22:44:37.783Z,10.85
2019-03-31T22:49:33.896Z,10.55
2019-03-31T22:54:30.044Z,10.75
2019-03-31T22:59:26.141Z,10.78
2019-03-31T23:04:22.797Z,10.78
2019-03-31T23:09:18.778Z,10.60
2019-03-31T23:14:15.496Z,10.33
2019-03-31T23:19:15.008Z,10.29
2019-03-31T23:24:10.916Z,10.16
2019-03-31T23:29:07.198Z,10.07
2019-03-31T23:34:03.307Z,9.94
2019-03-31T23:38:59.213Z,9.98
2019-03-31T23:43:55.326Z,9.78
2019-03-31T23:48:51.306Z,9.82
2019-03-31T23:53:47.226Z,9.82
2019-03-31T23:58:43.226Z,9.66
